sensor_id;sensor_type;location;lat;lon;timestamp;pressure;altitude;pressure_sealevel;temperature;humidity
65359;BME280;52491;45.900;6.346;2023-05-11T00:01:30;93724.03;;;24.84;38.11
65359;BME280;52491;45.900;6.346;2023-05-11T00:03:56;93719.50;;;24.85;38.26
65359;BME280;52491;45.900;6.346;2023-05-11T00:06:22;93716.84;;;24.85;38.25
65359;BME280;52491;45.900;6.346;2023-05-11T00:08:47;93713.34;;;24.84;38.10
65359;BME280;52491;45.900;6.346;2023-05-11T00:11:13;93716.84;;;24.85;37.89
65359;BME280;52491;45.900;6.346;2023-05-11T00:13:38;93718.69;;;24.84;38.27
65359;BME280;52491;45.900;6.346;2023-05-11T00:16:04;93716.84;;;24.85;38.16
65359;BME280;52491;45.900;6.346;2023-05-11T00:18:30;93719.50;;;24.85;37.69
65359;BME280;52491;45.900;6.346;2023-05-11T00:20:55;93716.03;;;24.84;37.84
65359;BME280;52491;45.900;6.346;2023-05-11T00:23:21;93716.03;;;24.84;37.88
65359;BME280;52491;45.900;6.346;2023-05-11T00:25:47;93710.69;;;24.84;37.95
65359;BME280;52491;45.900;6.346;2023-05-11T00:28:13;93719.50;;;24.85;37.70
65359;BME280;52491;45.900;6.346;2023-05-11T00:30:39;93720.56;;;24.84;37.54
65359;BME280;52491;45.900;6.346;2023-05-11T00:33:05;93714.19;;;24.85;37.87
65359;BME280;52491;45.900;6.346;2023-05-11T00:35:31;93711.78;;;24.83;37.44
65359;BME280;52491;45.900;6.346;2023-05-11T00:37:57;93706.44;;;24.83;37.73
65359;BME280;52491;45.900;6.346;2023-05-11T00:40:23;93708.31;;;24.83;37.71
65359;BME280;52491;45.900;6.346;2023-05-11T00:42:49;93706.19;;;24.85;37.25
65359;BME280;52491;45.900;6.346;2023-05-11T00:45:14;93694.97;;;24.83;37.48
65359;BME280;52491;45.900;6.346;2023-05-11T00:47:40;93700.56;;;24.81;37.44
65359;BME280;52491;45.900;6.346;2023-05-11T00:50:06;93710.19;;;24.82;37.25
65359;BME280;52491;45.900;6.346;2023-05-11T00:52:33;93701.38;;;24.82;37.34
65359;BME280;52491;45.900;6.346;2023-05-11T00:54:58;93699.50;;;24.82;37.61
65359;BME280;52491;45.900;6.346;2023-05-11T00:57:25;93704.06;;;24.82;37.09
65359;BME280;52491;45.900;6.346;2023-05-11T00:59:50;93698.97;;;24.80;37.16
65359;BME280;52491;45.900;6.346;2023-05-11T01:02:17;93696.31;;;24.80;37.20
65359;BME280;52491;45.900;6.346;2023-05-11T01:04:43;93697.09;;;24.81;37.38
65359;BME280;52491;45.900;6.346;2023-05-11T01:07:30;93696.84;;;24.82;37.36
65359;BME280;52491;45.900;6.346;2023-05-11T01:15:35;93693.91;;;24.78;36.87
65359;BME280;52491;45.900;6.346;2023-05-11T01:20:43;93687.78;;;24.78;36.87
65359;BME280;52491;45.900;6.346;2023-05-11T01:29:12;93689.09;;;24.75;36.90
65359;BME280;52491;45.900;6.346;2023-05-11T01:31:53;93683.78;;;24.75;36.82
65359;BME280;52491;45.900;6.346;2023-05-11T01:34:25;93691.53;;;24.77;36.91
65359;BME280;52491;45.900;6.346;2023-05-11T01:37:20;93688.56;;;24.78;37.09
65359;BME280;52491;45.900;6.346;2023-05-11T01:39:51;93681.66;;;24.77;37.01
65359;BME280;52491;45.900;6.346;2023-05-11T01:42:22;93690.72;;;24.76;37.14
65359;BME280;52491;45.900;6.346;2023-05-11T01:44:51;93686.19;;;24.77;36.80
65359;BME280;52491;45.900;6.346;2023-05-11T01:47:20;93690.72;;;24.76;36.63
65359;BME280;52491;45.900;6.346;2023-05-11T01:49:47;93688.06;;;24.76;36.66
65359;BME280;52491;45.900;6.346;2023-05-11T01:52:17;93683.78;;;24.75;36.46
65359;BME280;52491;45.900;6.346;2023-05-11T01:54:45;93683.00;;;24.75;36.88
65359;BME280;52491;45.900;6.346;2023-05-11T01:57:14;93682.19;;;24.74;36.75
65359;BME280;52491;45.900;6.346;2023-05-11T01:59:41;93677.66;;;24.75;36.86
65359;BME280;52491;45.900;6.346;2023-05-11T02:02:08;93675.78;;;24.75;36.60
65359;BME280;52491;45.900;6.346;2023-05-11T02:04:37;93677.13;;;24.78;36.68
65359;BME280;52491;45.900;6.346;2023-05-11T02:07:06;93675.53;;;24.77;36.56
65359;BME280;52491;45.900;6.346;2023-05-11T02:09:33;93677.91;;;24.78;36.21
65359;BME280;52491;45.900;6.346;2023-05-11T02:12:00;93677.13;;;24.78;36.18
65359;BME280;52491;45.900;6.346;2023-05-11T02:14:28;93683.25;;;24.78;36.25
65359;BME280;52491;45.900;6.346;2023-05-11T02:16:59;93679.78;;;24.78;36.20
65359;BME280;52491;45.900;6.346;2023-05-11T02:19:28;93671.28;;;24.76;36.69
65359;BME280;52491;45.900;6.346;2023-05-11T02:21:54;93678.44;;;24.75;36.54
65359;BME280;52491;45.900;6.346;2023-05-11T02:24:22;93671.53;;;24.74;36.21
65359;BME280;52491;45.900;6.346;2023-05-11T02:26:49;93675.28;;;24.73;36.02
65359;BME280;52491;45.900;6.346;2023-05-11T02:29:14;93671.53;;;24.74;36.51
65359;BME280;52491;45.900;6.346;2023-05-11T02:31:42;93671.53;;;24.74;36.17
65359;BME280;52491;45.900;6.346;2023-05-11T02:34:23;93668.59;;;24.76;36.45
65359;BME280;52491;45.900;6.346;2023-05-11T02:36:52;93666.19;;;24.74;36.00
65359;BME280;52491;45.900;6.346;2023-05-11T02:39:19;93674.19;;;24.74;36.08
65359;BME280;52491;45.900;6.346;2023-05-11T02:41:54;93670.44;;;24.75;36.42
65359;BME280;52491;45.900;6.346;2023-05-11T02:44:23;93668.88;;;24.74;35.88
65359;BME280;52491;45.900;6.346;2023-05-11T02:46:53;93671.53;;;24.74;36.01
65359;BME280;52491;45.900;6.346;2023-05-11T02:49:22;93668.88;;;24.74;35.88
65359;BME280;52491;45.900;6.346;2023-05-11T02:51:50;93675.28;;;24.73;36.29
65359;BME280;52491;45.900;6.346;2023-05-11T02:54:17;93669.94;;;24.73;35.84
65359;BME280;52491;45.900;6.346;2023-05-11T02:56:45;93672.59;;;24.73;36.23
65359;BME280;52491;45.900;6.346;2023-05-11T02:59:11;93666.44;;;24.73;35.79
65359;BME280;52491;45.900;6.346;2023-05-11T03:01:38;93665.66;;;24.72;35.92
65359;BME280;52491;45.900;6.346;2023-05-11T03:04:04;93670.19;;;24.72;35.73
65359;BME280;52491;45.900;6.346;2023-05-11T03:06:30;93665.66;;;24.72;36.07
65359;BME280;52491;45.900;6.346;2023-05-11T03:08:56;93669.13;;;24.73;35.69
65359;BME280;52491;45.900;6.346;2023-05-11T03:11:22;93661.41;;;24.71;35.77
65359;BME280;52491;45.900;6.346;2023-05-11T03:13:48;93658.75;;;24.71;36.24
65359;BME280;52491;45.900;6.346;2023-05-11T03:16:15;93660.63;;;24.71;36.00
65359;BME280;52491;45.900;6.346;2023-05-11T03:18:41;93662.75;;;24.69;36.15
65359;BME280;52491;45.900;6.346;2023-05-11T03:21:08;93652.06;;;24.69;35.79
65359;BME280;52491;45.900;6.346;2023-05-11T03:23:34;93652.06;;;24.69;36.06
65359;BME280;52491;45.900;6.346;2023-05-11T03:26:03;93645.66;;;24.70;35.89
65359;BME280;52491;45.900;6.346;2023-05-11T03:28:30;93643.81;;;24.70;36.02
65359;BME280;52491;45.900;6.346;2023-05-11T03:30:56;93642.22;;;24.69;35.92
65359;BME280;52491;45.900;6.346;2023-05-11T03:33:22;93639.53;;;24.69;35.87
65359;BME280;52491;45.900;6.346;2023-05-11T03:35:50;93638.50;;;24.70;35.63
65359;BME280;52491;45.900;6.346;2023-05-11T03:38:16;93632.34;;;24.70;35.69
65359;BME280;52491;45.900;6.346;2023-05-11T03:40:43;93629.16;;;24.68;36.04
65359;BME280;52491;45.900;6.346;2023-05-11T03:43:11;93627.28;;;24.68;35.82
65359;BME280;52491;45.900;6.346;2023-05-11T03:45:41;93621.97;;;24.68;35.37
65359;BME280;52491;45.900;6.346;2023-05-11T03:48:08;93628.34;;;24.67;35.70
65359;BME280;52491;45.900;6.346;2023-05-11T03:50:35;93621.44;;;24.66;35.94
65359;BME280;52491;45.900;6.346;2023-05-11T03:53:02;93628.34;;;24.67;35.52
65359;BME280;52491;45.900;6.346;2023-05-11T03:55:28;93621.44;;;24.66;35.73
65359;BME280;52491;45.900;6.346;2023-05-11T03:57:54;93630.50;;;24.65;35.71
65359;BME280;52491;45.900;6.346;2023-05-11T04:00:20;93624.09;;;24.66;35.46
65359;BME280;52491;45.900;6.346;2023-05-11T04:02:46;93620.63;;;24.66;35.92
65359;BME280;52491;45.900;6.346;2023-05-11T04:05:12;93616.09;;;24.66;35.60
65359;BME280;52491;45.900;6.346;2023-05-11T04:07:38;93615.00;;;24.67;35.71
65359;BME280;52491;45.900;6.346;2023-05-11T04:10:04;93616.88;;;24.67;35.79
65359;BME280;52491;45.900;6.346;2023-05-11T04:12:30;93619.84;;;24.65;35.83
65359;BME280;52491;45.900;6.346;2023-05-11T04:14:56;93614.50;;;24.65;35.54
65359;BME280;52491;45.900;6.346;2023-05-11T04:17:22;93616.88;;;24.67;35.86
65359;BME280;52491;45.900;6.346;2023-05-11T04:19:47;93615.31;;;24.66;35.35
65359;BME280;52491;45.900;6.346;2023-05-11T04:22:13;93611.84;;;24.65;35.46
65359;BME280;52491;45.900;6.346;2023-05-11T04:24:38;93614.50;;;24.65;35.36
65359;BME280;52491;45.900;6.346;2023-05-11T04:27:04;93613.72;;;24.65;35.58
65359;BME280;52491;45.900;6.346;2023-05-11T04:29:29;93608.09;;;24.66;35.46
65359;BME280;52491;45.900;6.346;2023-05-11T04:31:55;93611.56;;;24.67;35.25
65359;BME280;52491;45.900;6.346;2023-05-11T04:34:21;93608.09;;;24.66;35.56
65359;BME280;52491;45.900;6.346;2023-05-11T04:36:48;93607.03;;;24.67;35.46
65359;BME280;52491;45.900;6.346;2023-05-11T04:39:14;93601.69;;;24.67;35.43
65359;BME280;52491;45.900;6.346;2023-05-11T04:41:44;93612.34;;;24.67;35.45
65359;BME280;52491;45.900;6.346;2023-05-11T04:44:09;93607.03;;;24.67;35.45
65359;BME280;52491;45.900;6.346;2023-05-11T04:46:35;93605.97;;;24.68;35.45
65359;BME280;52491;45.900;6.346;2023-05-11T04:49:04;93607.56;;;24.69;35.56
65359;BME280;52491;45.900;6.346;2023-05-11T04:51:30;93603.31;;;24.68;35.63
65359;BME280;52491;45.900;6.346;2023-05-11T04:53:55;93603.00;;;24.70;35.21
65359;BME280;52491;45.900;6.346;2023-05-11T04:56:21;93606.50;;;24.70;35.41
65359;BME280;52491;45.900;6.346;2023-05-11T04:58:49;93603.84;;;24.70;35.62
65359;BME280;52491;45.900;6.346;2023-05-11T05:01:16;93612.63;;;24.71;35.34
65359;BME280;52491;45.900;6.346;2023-05-11T05:03:42;93608.09;;;24.71;35.51
65359;BME280;52491;45.900;6.346;2023-05-11T05:06:08;93607.28;;;24.71;35.33
65359;BME280;52491;45.900;6.346;2023-05-11T05:08:33;93604.63;;;24.71;35.73
65359;BME280;52491;45.900;6.346;2023-05-11T05:10:59;93604.63;;;24.71;35.24
65359;BME280;52491;45.900;6.346;2023-05-11T05:13:25;93599.31;;;24.71;35.29
65359;BME280;52491;45.900;6.346;2023-05-11T05:15:50;93601.19;;;24.70;35.40
65359;BME280;52491;45.900;6.346;2023-05-11T05:18:16;93607.28;;;24.71;35.06
65359;BME280;52491;45.900;6.346;2023-05-11T05:20:41;93606.22;;;24.72;35.26
65359;BME280;52491;45.900;6.346;2023-05-11T05:23:07;93606.50;;;24.70;35.21
65359;BME280;52491;45.900;6.346;2023-05-11T05:25:33;93607.28;;;24.71;35.35
65359;BME280;52491;45.900;6.346;2023-05-11T05:27:59;93606.22;;;24.72;35.45
65359;BME280;52491;45.900;6.346;2023-05-11T05:30:24;93604.34;;;24.72;35.43
65359;BME280;52491;45.900;6.346;2023-05-11T05:32:50;93607.00;;;24.72;35.65
65359;BME280;52491;45.900;6.346;2023-05-11T05:35:16;93612.88;;;24.74;35.39
65359;BME280;52491;45.900;6.346;2023-05-11T05:37:42;93612.09;;;24.74;35.61
65359;BME280;52491;45.900;6.346;2023-05-11T05:40:08;93607.53;;;24.74;35.50
65359;BME280;52491;45.900;6.346;2023-05-11T05:42:34;93610.22;;;24.74;35.25
65359;BME280;52491;45.900;6.346;2023-05-11T05:45:00;93609.69;;;24.72;34.10
65359;BME280;52491;45.900;6.346;2023-05-11T05:47:26;93602.22;;;24.64;34.02
65359;BME280;52491;45.900;6.346;2023-05-11T05:49:51;93602.28;;;24.59;34.03
65359;BME280;52491;45.900;6.346;2023-05-11T05:52:17;93599.59;;;24.59;34.04
65359;BME280;52491;45.900;6.346;2023-05-11T05:54:42;93601.44;;;24.59;33.87
65359;BME280;52491;45.900;6.346;2023-05-11T05:57:08;93597.72;;;24.60;33.66
65359;BME280;52491;45.900;6.346;2023-05-11T05:59:34;93604.94;;;24.59;33.66
65359;BME280;52491;45.900;6.346;2023-05-11T06:01:59;93604.94;;;24.59;33.26
65359;BME280;52491;45.900;6.346;2023-05-11T06:04:25;93606.78;;;24.59;33.49
65359;BME280;52491;45.900;6.346;2023-05-11T06:06:50;93595.59;;;24.56;33.43
65359;BME280;52491;45.900;6.346;2023-05-11T06:09:16;93596.41;;;24.62;32.78
65359;BME280;52491;45.900;6.346;2023-05-11T06:11:42;93592.63;;;24.68;32.70
65359;BME280;52491;45.900;6.346;2023-05-11T06:14:07;93592.63;;;24.68;32.93
65359;BME280;52491;45.900;6.346;2023-05-11T06:16:33;93593.44;;;24.69;32.89
65359;BME280;52491;45.900;6.346;2023-05-11T06:18:58;93596.09;;;24.69;32.34
65359;BME280;52491;45.900;6.346;2023-05-11T06:21:24;93590.78;;;24.69;32.53
65359;BME280;52491;45.900;6.346;2023-05-11T06:23:49;93595.31;;;24.68;32.59
65359;BME280;52491;45.900;6.346;2023-05-11T06:26:15;93586.78;;;24.66;32.31
65359;BME280;52491;45.900;6.346;2023-05-11T06:28:41;93586.78;;;24.66;32.84
65359;BME280;52491;45.900;6.346;2023-05-11T06:31:06;93588.34;;;24.67;32.40
65359;BME280;52491;45.900;6.346;2023-05-11T06:33:32;93575.84;;;24.68;32.78
65359;BME280;52491;45.900;6.346;2023-05-11T06:35:57;93570.53;;;24.68;32.14
65359;BME280;52491;45.900;6.346;2023-05-11T06:38:23;93582.22;;;24.67;32.46
65359;BME280;52491;45.900;6.346;2023-05-11T06:40:52;93579.03;;;24.70;34.56
65359;BME280;52491;45.900;6.346;2023-05-11T06:43:18;93572.38;;;24.67;34.27
65359;BME280;52491;45.900;6.346;2023-05-11T06:45:44;93582.22;;;24.67;34.21
65359;BME280;52491;45.900;6.346;2023-05-11T06:48:09;93577.97;;;24.66;33.86
65359;BME280;52491;45.900;6.346;2023-05-11T06:50:35;93581.44;;;24.66;34.00
65359;BME280;52491;45.900;6.346;2023-05-11T06:53:00;93584.09;;;24.66;33.61
65359;BME280;52491;45.900;6.346;2023-05-11T06:55:26;93571.06;;;24.65;33.38
65359;BME280;52491;45.900;6.346;2023-05-11T06:57:52;93580.66;;;24.66;33.24
65359;BME280;52491;45.900;6.346;2023-05-11T07:00:17;93579.56;;;24.67;32.90
65359;BME280;52491;45.900;6.346;2023-05-11T07:02:43;93576.41;;;24.65;33.22
65359;BME280;52491;45.900;6.346;2023-05-11T07:05:08;93572.13;;;24.64;33.05
65359;BME280;52491;45.900;6.346;2023-05-11T07:07:34;93569.44;;;24.64;32.82
65359;BME280;52491;45.900;6.346;2023-05-11T07:09:59;93574.78;;;24.64;32.58
65359;BME280;52491;45.900;6.346;2023-05-11T07:12:25;93568.41;;;24.65;32.96
65359;BME280;52491;45.900;6.346;2023-05-11T07:14:51;93569.44;;;24.64;32.49
65359;BME280;52491;45.900;6.346;2023-05-11T07:17:16;93564.91;;;24.64;32.58
65359;BME280;52491;45.900;6.346;2023-05-11T07:19:42;93570.25;;;24.64;32.51
65359;BME280;52491;45.900;6.346;2023-05-11T07:22:08;93561.47;;;24.64;32.28
65359;BME280;52491;45.900;6.346;2023-05-11T07:24:33;93558.00;;;24.63;32.47
65359;BME280;52491;45.900;6.346;2023-05-11T07:26:59;93558.78;;;24.64;32.19
65359;BME280;52491;45.900;6.346;2023-05-11T07:29:26;93558.78;;;24.64;32.50
65359;BME280;52491;45.900;6.346;2023-05-11T07:31:52;93554.25;;;24.64;32.29
65359;BME280;52491;45.900;6.346;2023-05-11T07:34:17;93552.41;;;24.65;32.42
65359;BME280;52491;45.900;6.346;2023-05-11T07:36:43;93546.25;;;24.64;32.04
65359;BME280;52491;45.900;6.346;2023-05-11T07:39:09;93541.75;;;24.65;32.43
65359;BME280;52491;45.900;6.346;2023-05-11T07:41:35;93543.34;;;24.66;31.92
65359;BME280;52491;45.900;6.346;2023-05-11T07:44:00;93552.13;;;24.66;31.86
65359;BME280;52491;45.900;6.346;2023-05-11T07:46:26;93544.41;;;24.65;32.16
65359;BME280;52491;45.900;6.346;2023-05-11T07:48:52;93548.13;;;24.64;32.19
65359;BME280;52491;45.900;6.346;2023-05-11T07:51:17;93540.13;;;24.64;32.11
65359;BME280;52491;45.900;6.346;2023-05-11T07:53:43;93532.13;;;24.64;31.73
65359;BME280;52491;45.900;6.346;2023-05-11T07:56:08;93533.75;;;24.65;32.04
65359;BME280;52491;45.900;6.346;2023-05-11T07:58:34;93535.59;;;24.64;32.09
65359;BME280;52491;45.900;6.346;2023-05-11T08:01:00;93531.09;;;24.65;31.83
65359;BME280;52491;45.900;6.346;2023-05-11T08:03:26;93525.75;;;24.65;31.67
65359;BME280;52491;45.900;6.346;2023-05-11T08:05:51;93528.41;;;24.65;31.65
65359;BME280;52491;45.900;6.346;2023-05-11T08:08:17;93529.22;;;24.65;31.84
65359;BME280;52491;45.900;6.346;2023-05-11T08:10:42;93524.13;;;24.64;31.62
65359;BME280;52491;45.900;6.346;2023-05-11T08:13:08;93520.44;;;24.65;31.58
65359;BME280;52491;45.900;6.346;2023-05-11T08:15:34;93520.13;;;24.66;31.53
65359;BME280;52491;45.900;6.346;2023-05-11T08:17:59;93517.50;;;24.56;32.01
65359;BME280;52491;45.900;6.346;2023-05-11T08:20:25;93512.72;;;24.53;32.00
65359;BME280;52491;45.900;6.346;2023-05-11T08:22:51;93518.88;;;24.53;31.74
65359;BME280;52491;45.900;6.346;2023-05-11T08:25:17;93508.44;;;24.62;32.00
65359;BME280;52491;45.900;6.346;2023-05-11T08:27:42;93510.81;;;24.64;31.48
65359;BME280;52491;45.900;6.346;2023-05-11T08:30:08;93508.16;;;24.64;31.54
65359;BME280;52491;45.900;6.346;2023-05-11T08:32:35;93517.47;;;24.66;31.21
65359;BME280;52491;45.900;6.346;2023-05-11T08:35:04;93513.47;;;24.64;31.70
65359;BME280;52491;45.900;6.346;2023-05-11T08:37:30;93517.22;;;24.63;31.33
65359;BME280;52491;45.900;6.346;2023-05-11T08:39:55;93506.56;;;24.63;31.39
65359;BME280;52491;45.900;6.346;2023-05-11T08:42:23;93499.34;;;24.63;31.34
65359;BME280;52491;45.900;6.346;2023-05-11T08:44:54;93508.94;;;24.64;31.54
65359;BME280;52491;45.900;6.346;2023-05-11T08:47:21;93504.69;;;24.63;31.28
65359;BME280;52491;45.900;6.346;2023-05-11T08:49:47;93503.59;;;24.64;31.61
65359;BME280;52491;45.900;6.346;2023-05-11T08:52:13;93497.47;;;24.64;31.50
65359;BME280;52491;45.900;6.346;2023-05-11T08:54:40;93499.34;;;24.63;31.48
65359;BME280;52491;45.900;6.346;2023-05-11T08:57:06;93502.81;;;24.64;30.94
65359;BME280;52491;45.900;6.346;2023-05-11T08:59:33;93492.16;;;24.64;31.17
65359;BME280;52491;45.900;6.346;2023-05-11T09:01:59;93491.91;;;24.65;31.23
65359;BME280;52491;45.900;6.346;2023-05-11T09:04:26;93491.09;;;24.65;31.15
65359;BME280;52491;45.900;6.346;2023-05-11T09:06:52;93486.56;;;24.65;31.25
65359;BME280;52491;45.900;6.346;2023-05-11T09:09:19;93490.81;;;24.66;31.22
65359;BME280;52491;45.900;6.346;2023-05-11T09:11:46;93490.03;;;24.66;31.36
65359;BME280;52491;45.900;6.346;2023-05-11T09:14:12;93489.22;;;24.65;30.87
65359;BME280;52491;45.900;6.346;2023-05-11T09:16:37;93487.34;;;24.66;31.21
65359;BME280;52491;45.900;6.346;2023-05-11T09:19:03;93485.47;;;24.66;30.93
65359;BME280;52491;45.900;6.346;2023-05-11T09:21:30;93486.81;;;24.69;30.64
65359;BME280;52491;45.900;6.346;2023-05-11T09:23:56;93484.13;;;24.69;31.02
65359;BME280;52491;45.900;6.346;2023-05-11T09:26:26;93477.72;;;24.70;31.13
65359;BME280;52491;45.900;6.346;2023-05-11T09:28:56;93475.06;;;24.70;31.12
65359;BME280;52491;45.900;6.346;2023-05-11T09:31:39;93471.84;;;24.73;31.11
65359;BME280;52491;45.900;6.346;2023-05-11T09:34:22;93472.13;;;24.71;31.02
65359;BME280;52491;45.900;6.346;2023-05-11T09:36:52;93470.56;;;24.70;30.97
65359;BME280;52491;45.900;6.346;2023-05-11T09:39:32;93461.72;;;24.70;30.86
65359;BME280;52491;45.900;6.346;2023-05-11T09:42:22;93463.59;;;24.69;30.72
65359;BME280;52491;45.900;6.346;2023-05-11T09:44:48;93464.16;;;24.66;30.71
65359;BME280;52491;45.900;6.346;2023-05-11T09:47:18;93461.50;;;24.66;30.70
65359;BME280;52491;45.900;6.346;2023-05-11T09:49:44;93455.06;;;24.67;30.87
65359;BME280;52491;45.900;6.346;2023-05-11T09:52:12;93460.41;;;24.67;30.67
65359;BME280;52491;45.900;6.346;2023-05-11T09:54:46;93459.34;;;24.68;30.33
65359;BME280;52491;45.900;6.346;2023-05-11T09:57:28;93451.91;;;24.70;30.53
65359;BME280;52491;45.900;6.346;2023-05-11T09:59:56;93451.63;;;24.67;30.42
65359;BME280;52491;45.900;6.346;2023-05-11T10:02:25;93448.16;;;24.66;30.47
65359;BME280;52491;45.900;6.346;2023-05-11T10:04:54;93441.75;;;24.67;30.74
65359;BME280;52491;45.900;6.346;2023-05-11T10:09:57;93434.84;;;24.66;30.67
65359;BME280;52491;45.900;6.346;2023-05-11T10:12:24;93438.03;;;24.68;30.59
65359;BME280;52491;45.900;6.346;2023-05-11T10:14:52;93441.22;;;24.70;30.43
65359;BME280;52491;45.900;6.346;2023-05-11T10:17:19;93441.22;;;24.70;31.02
65359;BME280;52491;45.900;6.346;2023-05-11T10:19:48;93430.56;;;24.70;30.47
65359;BME280;52491;45.900;6.346;2023-05-11T10:22:14;93433.50;;;24.69;30.92
65359;BME280;52491;45.900;6.346;2023-05-11T10:24:41;93443.38;;;24.68;30.43
65359;BME280;52491;45.900;6.346;2023-05-11T10:27:09;93441.22;;;24.70;30.65
65359;BME280;52491;45.900;6.346;2023-05-11T10:29:36;93440.41;;;24.70;30.30
65359;BME280;52491;45.900;6.346;2023-05-11T10:32:02;93438.03;;;24.68;30.40
65359;BME280;52491;45.900;6.346;2023-05-11T10:34:28;93438.03;;;24.68;30.42
65359;BME280;52491;45.900;6.346;2023-05-11T10:36:59;93439.34;;;24.71;30.26
65359;BME280;52491;45.900;6.346;2023-05-11T10:39:24;93440.69;;;24.68;30.18
65359;BME280;52491;45.900;6.346;2023-05-11T11:03:41;93408.97;;;24.67;30.27
65359;BME280;52491;45.900;6.346;2023-05-11T11:06:22;93409.50;;;24.69;30.24
65359;BME280;52491;45.900;6.346;2023-05-11T11:08:56;93401.50;;;24.69;30.54
65359;BME280;52491;45.900;6.346;2023-05-11T11:11:36;93398.59;;;24.70;30.51
65359;BME280;52491;45.900;6.346;2023-05-11T11:14:04;93401.25;;;24.70;30.56
65359;BME280;52491;45.900;6.346;2023-05-11T11:16:31;93402.03;;;24.71;30.65
65359;BME280;52491;45.900;6.346;2023-05-11T11:21:58;93393.25;;;24.70;30.98
65359;BME280;52491;45.900;6.346;2023-05-11T11:24:53;93386.53;;;24.73;31.02
65359;BME280;52491;45.900;6.346;2023-05-11T11:30:21;93380.41;;;24.72;30.82
65359;BME280;52491;45.900;6.346;2023-05-11T11:32:49;93375.38;;;24.71;31.13
65359;BME280;52491;45.900;6.346;2023-05-11T11:38:09;93362.06;;;24.71;30.59
65359;BME280;52491;45.900;6.346;2023-05-11T11:40:39;93362.06;;;24.71;30.74
65359;BME280;52491;45.900;6.346;2023-05-11T11:43:13;93359.88;;;24.73;31.20
65359;BME280;52491;45.900;6.346;2023-05-11T11:48:14;93354.84;;;24.71;30.92
65359;BME280;52491;45.900;6.346;2023-05-11T11:50:43;93345.28;;;24.70;31.18
65359;BME280;52491;45.900;6.346;2023-05-11T11:55:55;93340.44;;;24.72;30.75
65359;BME280;52491;45.900;6.346;2023-05-11T12:01:17;93330.28;;;24.74;31.22
65359;BME280;52491;45.900;6.346;2023-05-11T12:03:46;93332.69;;;24.76;31.33
65359;BME280;52491;45.900;6.346;2023-05-11T12:06:20;93328.16;;;24.76;31.69
65359;BME280;52491;45.900;6.346;2023-05-11T12:08:49;93326.53;;;24.75;31.40
65359;BME280;52491;45.900;6.346;2023-05-11T12:11:16;93327.38;;;24.76;31.55
65359;BME280;52491;45.900;6.346;2023-05-11T12:13:42;93320.44;;;24.75;30.69
65359;BME280;52491;45.900;6.346;2023-05-11T12:16:15;93321.22;;;24.75;30.25
65359;BME280;52491;45.900;6.346;2023-05-11T12:18:54;93324.69;;;24.76;30.66
65359;BME280;52491;45.900;6.346;2023-05-11T12:21:22;93319.63;;;24.74;30.46
65359;BME280;52491;45.900;6.346;2023-05-11T12:23:56;93317.50;;;24.76;30.39
65359;BME280;52491;45.900;6.346;2023-05-11T12:26:23;93322.81;;;24.76;30.33
65359;BME280;52491;45.900;6.346;2023-05-11T12:28:50;93333.50;;;24.76;30.47
65359;BME280;52491;45.900;6.346;2023-05-11T12:31:17;93345.22;;;24.75;30.12
65359;BME280;52491;45.900;6.346;2023-05-11T12:33:47;93352.16;;;24.76;30.06
65359;BME280;52491;45.900;6.346;2023-05-11T12:36:15;93345.22;;;24.75;30.29
65359;BME280;52491;45.900;6.346;2023-05-11T12:38:47;93337.22;;;24.75;30.25
65359;BME280;52491;45.900;6.346;2023-05-11T12:41:20;93343.38;;;24.76;29.97
65359;BME280;52491;45.900;6.346;2023-05-11T12:43:49;93343.09;;;24.72;30.35
65359;BME280;52491;45.900;6.346;2023-05-11T12:46:16;93349.50;;;24.71;30.23
65359;BME280;52491;45.900;6.346;2023-05-11T12:48:44;93347.13;;;24.70;30.55
65359;BME280;52491;45.900;6.346;2023-05-11T12:51:10;93347.13;;;24.70;30.66
65359;BME280;52491;45.900;6.346;2023-05-11T12:53:38;93355.94;;;24.70;30.97
65359;BME280;52491;45.900;6.346;2023-05-11T12:56:05;93355.94;;;24.70;30.52
65359;BME280;52491;45.900;6.346;2023-05-11T12:58:35;93351.66;;;24.69;30.60
65359;BME280;52491;45.900;6.346;2023-05-11T13:01:03;93356.47;;;24.67;30.98
65359;BME280;52491;45.900;6.346;2023-05-11T13:03:30;93360.72;;;24.68;31.30
65359;BME280;52491;45.900;6.346;2023-05-11T13:06:08;93360.72;;;24.68;30.99
65359;BME280;52491;45.900;6.346;2023-05-11T13:08:39;93357.53;;;24.66;31.45
65359;BME280;52491;45.900;6.346;2023-05-11T13:11:21;93346.09;;;24.66;31.33
65359;BME280;52491;45.900;6.346;2023-05-11T13:13:52;93351.41;;;24.66;31.73
65359;BME280;52491;45.900;6.346;2023-05-11T13:16:29;93352.22;;;24.66;31.67
65359;BME280;52491;45.900;6.346;2023-05-11T13:19:03;93343.69;;;24.64;31.60
65359;BME280;52491;45.900;6.346;2023-05-11T13:21:30;93345.56;;;24.64;31.49
65359;BME280;52491;45.900;6.346;2023-05-11T13:23:57;93344.78;;;24.63;31.87
65359;BME280;52491;45.900;6.346;2023-05-11T13:26:29;93336.50;;;24.65;31.49
65359;BME280;52491;45.900;6.346;2023-05-11T13:28:55;93338.34;;;24.64;31.72
65359;BME280;52491;45.900;6.346;2023-05-11T13:31:21;93331.19;;;24.65;31.84
65359;BME280;52491;45.900;6.346;2023-05-11T13:33:49;93334.34;;;24.67;31.97
65359;BME280;52491;45.900;6.346;2023-05-11T13:36:15;93324.75;;;24.66;32.00
65359;BME280;52491;45.900;6.346;2023-05-11T13:38:41;93326.34;;;24.67;31.54
65359;BME280;52491;45.900;6.346;2023-05-11T13:41:07;93326.09;;;24.68;32.04
65359;BME280;52491;45.900;6.346;2023-05-11T13:43:33;93320.75;;;24.68;31.67
65359;BME280;52491;45.900;6.346;2023-05-11T13:45:59;93318.63;;;24.70;32.00
65359;BME280;52491;45.900;6.346;2023-05-11T13:48:24;93312.47;;;24.70;32.39
65359;BME280;52491;45.900;6.346;2023-05-11T13:50:50;93307.94;;;24.70;32.35
65359;BME280;52491;45.900;6.346;2023-05-11T13:53:16;93310.31;;;24.72;32.49
65359;BME280;52491;45.900;6.346;2023-05-11T13:55:42;93305.00;;;24.72;32.15
65359;BME280;52491;45.900;6.346;2023-05-11T13:58:08;93306.56;;;24.73;32.36